HPM weather

Torre Ejecutiva Pemex Heliport
Miguel Hidalgo, Distrito Federal, Mexico

Public forecast

Using degrees Celsius for public forecast. Weather courtesy of forecast.io.

METAR (pilot weather report)

Closest report is Licenciado Benito Juarez International Airport, 5.8 nm (10.8 km) E. Retrieved 2019/06/26 23:54 UTC (29 minutes ago):

MMMX 262354Z 21010KT 8SM BKN020CB BKN080 OVC200 18/11 A3031 NOSIG RMK SLP107 52039 924 8/367 HZY

TAF (pilot weather forecast)

Forecast is more than 12 hours old.

Closest forecast is Licenciado Benito Juarez International Airport, 5.8 nm (10.8 km) E. Retrieved 2019/06/26 00:27 UTC (24 hours ago):

TAF MMMX 262323Z 2700/2806 12010KT P6SM VC RA BKN020CB BKN080 OVC200 TX24/2721Z TN16/2712Z TEMPO 2700/2704 5SM TSRA FM270600 00000KT P6SM SCT020 BKN080 FM271600 07005KT P6SM BKN020 BKN080 PROB40 2721/2801 6SM RA BKN020CB